Time;durP1;ratioP1;P1;durP2;ratioP2;P2;SDS_P1;SDS_P2;PMS_P1;PMS_P2;Temp;Humidity;BMP_temperature;BMP_pressure;BME280_temperature;BME280_humidity;BME280_pressure;Samples;Min_cycle;Max_cycle;Signal;HPM_P1;HPM_P2
2023/10/02 00:03:32;;;;;;;20.60;9.47;;;;;;;;;;5119771;27;20289;-72
2023/10/02 00:06:02;;;;;;;21.93;9.60;;;;;;;;;;5120028;28;20209;-72
2023/10/02 00:08:39;;;;;;;19.67;9.53;;;;;;;;;;5119962;27;20232;-71
2023/10/02 00:16:42;;;;;;;21.07;9.30;;;;;;;;;;5119307;27;20262;-71
2023/10/02 00:19:22;;;;;;;20.37;9.80;;;;;;;;;;5119962;28;20257;-72
2023/10/02 00:21:51;;;;;;;19.13;9.40;;;;;;;;;;5119913;28;20229;-71
2023/10/02 00:24:19;;;;;;;20.60;10.23;;;;;;;;;;5119718;28;20232;-71
2023/10/02 00:26:47;;;;;;;21.30;9.40;;;;;;;;;;5119813;28;20209;-71
2023/10/02 00:29:17;;;;;;;18.70;9.33;;;;;;;;;;5119452;28;20640;-71
2023/10/02 00:31:46;;;;;;;19.27;10.30;;;;;;;;;;5119380;28;20231;-71
2023/10/02 00:34:15;;;;;;;19.83;9.17;;;;;;;;;;5119331;28;20617;-72
2023/10/02 00:36:42;;;;;;;19.33;9.43;;;;;;;;;;5119270;28;20310;-71
2023/10/02 00:39:30;;;;;;;23.53;9.47;;;;;;;;;;5119121;28;20234;-70
2023/10/02 00:42:15;;;;;;;20.10;9.27;;;;;;;;;;5119336;27;20222;-71
2023/10/02 00:44:54;;;;;;;18.63;10.07;;;;;;;;;;5119188;28;20670;-71
2023/10/02 00:47:45;;;;;;;16.93;9.43;;;;;;;;;;5118837;28;20298;-70
2023/10/02 00:50:16;;;;;;;19.97;9.27;;;;;;;;;;5119106;28;20268;-71
2023/10/02 00:52:56;;;;;;;19.90;9.37;;;;;;;;;;5119203;28;20218;-72
2023/10/02 00:55:27;;;;;;;21.17;9.07;;;;;;;;;;5119301;28;20235;-72
2023/10/02 00:57:57;;;;;;;21.67;9.27;;;;;;;;;;5119276;28;20229;-71
2023/10/02 01:00:35;;;;;;;19.70;9.53;;;;;;;;;;5118712;28;20316;-71
2023/10/02 01:03:05;;;;;;;18.77;8.53;;;;;;;;;;5118639;28;20331;-71
2023/10/02 01:05:46;;;;;;;22.47;9.40;;;;;;;;;;5119118;28;20290;-72
2023/10/02 01:08:23;;;;;;;18.73;9.60;;;;;;;;;;5118898;28;20204;-72
2023/10/02 01:10:57;;;;;;;20.00;9.20;;;;;;;;;;5118707;28;20226;-72
2023/10/02 01:13:27;;;;;;;19.90;9.20;;;;;;;;;;5118853;28;20209;-72
2023/10/02 01:15:56;;;;;;;21.97;8.80;;;;;;;;;;5118234;28;20272;-72
2023/10/02 01:18:27;;;;;;;19.37;8.97;;;;;;;;;;5118834;28;20319;-71
2023/10/02 01:20:56;;;;;;;18.40;9.07;;;;;;;;;;5118708;28;20313;-72
2023/10/02 01:23:26;;;;;;;19.70;8.47;;;;;;;;;;5118455;28;20237;-71
2023/10/02 01:25:58;;;;;;;18.87;8.57;;;;;;;;;;5118431;28;20251;-71
2023/10/02 01:28:29;;;;;;;19.40;9.63;;;;;;;;;;5118735;28;20256;-72
2023/10/02 01:30:59;;;;;;;22.03;9.47;;;;;;;;;;5118332;28;20255;-73
2023/10/02 01:33:32;;;;;;;18.73;9.47;;;;;;;;;;5118472;28;20650;-71
2023/10/02 01:36:03;;;;;;;18.17;7.77;;;;;;;;;;5118567;28;20205;-71
2023/10/02 01:38:32;;;;;;;18.53;8.13;;;;;;;;;;5118394;28;20315;-73
2023/10/02 01:41:04;;;;;;;19.73;9.67;;;;;;;;;;5118212;28;20221;-72
2023/10/02 01:43:36;;;;;;;17.87;8.30;;;;;;;;;;5118222;28;20229;-72
2023/10/02 01:46:05;;;;;;;17.23;7.90;;;;;;;;;;5118220;28;20201;-71
2023/10/02 01:48:48;;;;;;;18.87;8.67;;;;;;;;;;5118184;28;20201;-72
2023/10/02 01:51:21;;;;;;;23.10;8.87;;;;;;;;;;5118124;28;20593;-71
2023/10/02 01:53:50;;;;;;;19.77;8.47;;;;;;;;;;5117831;28;20228;-71
2023/10/02 01:56:22;;;;;;;21.63;9.13;;;;;;;;;;5118460;28;20208;-71
2023/10/02 01:58:50;;;;;;;20.27;8.87;;;;;;;;;;5118327;28;20223;-72
2023/10/02 02:01:20;;;;;;;19.97;8.67;;;;;;;;;;5117916;28;20236;-71
2023/10/02 02:03:49;;;;;;;16.60;9.27;;;;;;;;;;5118422;28;20202;-72
2023/10/02 02:06:20;;;;;;;19.00;9.43;;;;;;;;;;5117951;28;20549;-72
2023/10/02 02:08:53;;;;;;;18.67;9.30;;;;;;;;;;5118156;28;20234;-71
2023/10/02 02:11:23;;;;;;;20.33;8.93;;;;;;;;;;5118051;28;20779;-71
2023/10/02 02:13:52;;;;;;;18.23;9.23;;;;;;;;;;5118133;28;20632;-71
2023/10/02 02:16:25;;;;;;;18.67;8.53;;;;;;;;;;5121177;28;20220;-72
2023/10/02 02:18:54;;;;;;;19.30;9.20;;;;;;;;;;5122262;28;20230;-71
2023/10/02 02:21:24;;;;;;;19.00;8.00;;;;;;;;;;5122117;28;20224;-70
2023/10/02 02:24:03;;;;;;;19.53;8.80;;;;;;;;;;5122137;28;20209;-71
2023/10/02 02:26:33;;;;;;;15.30;8.37;;;;;;;;;;5122251;28;20230;-71
2023/10/02 02:29:02;;;;;;;21.53;9.50;;;;;;;;;;5121850;28;20569;-72
2023/10/02 02:31:29;;;;;;;22.17;9.60;;;;;;;;;;5121515;28;20232;-70
2023/10/02 02:33:58;;;;;;;18.30;8.80;;;;;;;;;;5121999;28;20266;-70
2023/10/02 02:36:27;;;;;;;20.97;9.40;;;;;;;;;;5122346;28;20212;-71
2023/10/02 02:39:17;;;;;;;17.80;9.33;;;;;;;;;;5122234;28;20231;-71
2023/10/02 02:41:48;;;;;;;18.43;8.37;;;;;;;;;;5121780;28;20316;-70
2023/10/02 02:44:39;;;;;;;19.03;8.63;;;;;;;;;;5121566;28;20289;-70
2023/10/02 02:47:12;;;;;;;21.20;9.30;;;;;;;;;;5121223;28;20620;-70
2023/10/02 02:49:51;;;;;;;14.93;8.70;;;;;;;;;;5121472;28;20205;-71
2023/10/02 02:52:20;;;;;;;19.67;8.53;;;;;;;;;;5121358;28;20209;-71
2023/10/02 02:54:48;;;;;;;18.37;9.03;;;;;;;;;;5121132;28;20319;-72
2023/10/02 02:57:26;;;;;;;19.20;9.17;;;;;;;;;;5121497;28;20204;-72
2023/10/02 03:00:24;;;;;;;17.50;9.43;;;;;;;;;;5121046;28;20296;-71
2023/10/02 03:02:45;;;;;;;19.77;9.00;;;;;;;;;;5121000;28;20204;-70
2023/10/02 03:05:14;;;;;;;17.00;8.20;;;;;;;;;;5121526;28;20205;-71
2023/10/02 03:07:44;;;;;;;17.77;9.70;;;;;;;;;;5121393;27;20246;-71
2023/10/02 03:10:12;;;;;;;18.60;8.67;;;;;;;;;;5121530;28;20692;-71
2023/10/02 03:12:45;;;;;;;20.07;9.33;;;;;;;;;;5121302;28;20658;-71
2023/10/02 03:15:15;;;;;;;22.63;9.13;;;;;;;;;;5121177;27;20201;-71
2023/10/02 03:17:43;;;;;;;17.77;9.20;;;;;;;;;;5120939;28;20260;-71
2023/10/02 03:22:54;;;;;;;18.27;8.80;;;;;;;;;;5119118;27;20566;-71
2023/10/02 03:25:28;;;;;;;15.57;7.93;;;;;;;;;;5120375;27;20263;-71
2023/10/02 03:27:57;;;;;;;25.00;9.63;;;;;;;;;;5120988;28;20205;-71
2023/10/02 03:30:38;;;;;;;17.57;8.20;;;;;;;;;;5120455;28;20232;-71
2023/10/02 03:33:17;;;;;;;17.47;8.77;;;;;;;;;;5120868;28;20213;-71
2023/10/02 03:35:56;;;;;;;18.73;8.03;;;;;;;;;;5120820;28;20204;-71
2023/10/02 03:38:29;;;;;;;21.97;9.43;;;;;;;;;;5120510;28;20687;-71
2023/10/02 03:40:58;;;;;;;20.10;8.43;;;;;;;;;;5120806;28;20221;-71
2023/10/02 03:43:35;;;;;;;20.53;9.43;;;;;;;;;;5121456;28;20254;-71
2023/10/02 03:46:06;;;;;;;21.80;10.23;;;;;;;;;;5120528;28;20204;-71
2023/10/02 03:48:36;;;;;;;20.57;9.07;;;;;;;;;;5120364;28;20332;-71
2023/10/02 03:51:05;;;;;;;18.43;9.67;;;;;;;;;;5120529;28;20225;-71
2023/10/02 03:53:34;;;;;;;18.00;8.80;;;;;;;;;;5119993;28;20793;-71
2023/10/02 03:58:45;;;;;;;18.53;8.73;;;;;;;;;;5119798;28;20312;-71
2023/10/02 04:01:17;;;;;;;17.37;8.97;;;;;;;;;;5119837;27;20247;-72
2023/10/02 04:04:09;;;;;;;18.37;8.67;;;;;;;;;;5120288;28;20205;-71
2023/10/02 04:06:37;;;;;;;17.97;8.40;;;;;;;;;;5119882;28;20300;-71
2023/10/02 04:09:13;;;;;;;19.87;8.73;;;;;;;;;;5120123;28;20227;-72
2023/10/02 04:11:42;;;;;;;17.97;9.30;;;;;;;;;;5119961;28;20263;-71
2023/10/02 04:14:18;;;;;;;20.13;8.67;;;;;;;;;;5120037;28;20671;-71
2023/10/02 04:16:47;;;;;;;18.13;8.53;;;;;;;;;;5120113;28;20209;-71
2023/10/02 04:19:16;;;;;;;18.03;7.90;;;;;;;;;;5119573;28;20269;-72
2023/10/02 04:21:45;;;;;;;17.00;8.30;;;;;;;;;;5119492;28;20229;-71
2023/10/02 04:24:13;;;;;;;18.63;8.70;;;;;;;;;;5119520;28;20288;-66
2023/10/02 04:26:41;;;;;;;16.73;8.40;;;;;;;;;;5119530;28;20243;-66
2023/10/02 04:29:26;;;;;;;22.50;8.60;;;;;;;;;;5119532;28;20197;-65
2023/10/02 04:32:18;;;;;;;19.47;9.17;;;;;;;;;;5119424;27;20220;-65
2023/10/02 04:34:56;;;;;;;15.47;8.43;;;;;;;;;;5119456;28;20619;-66
2023/10/02 04:37:23;;;;;;;17.57;9.27;;;;;;;;;;5118486;28;20287;-64
2023/10/02 04:40:13;;;;;;;18.47;8.57;;;;;;;;;;5119069;28;20225;-65
2023/10/02 04:43:09;;;;;;;20.53;8.70;;;;;;;;;;5106228;28;20238;-65
2023/10/02 04:45:37;;;;;;;16.53;8.17;;;;;;;;;;5113479;28;20296;-65
2023/10/02 04:48:09;;;;;;;24.50;8.93;;;;;;;;;;5119445;28;20233;-64
2023/10/02 04:50:45;;;;;;;17.37;8.47;;;;;;;;;;5119026;28;20228;-64
2023/10/02 04:53:23;;;;;;;19.60;8.80;;;;;;;;;;5118977;28;20240;-63
2023/10/02 04:56:07;;;;;;;15.83;8.27;;;;;;;;;;5119360;27;20213;-64
2023/10/02 04:58:39;;;;;;;19.10;9.13;;;;;;;;;;5119031;28;20251;-64
2023/10/02 05:01:18;;;;;;;19.40;8.90;;;;;;;;;;5115698;28;20212;-65
2023/10/02 05:03:52;;;;;;;17.50;8.70;;;;;;;;;;5118490;28;20204;-66
2023/10/02 05:09:19;;;;;;;18.27;8.07;;;;;;;;;;5118269;28;20193;-65
2023/10/02 05:11:52;;;;;;;18.53;8.57;;;;;;;;;;5118013;28;20575;-64
2023/10/02 05:14:27;;;;;;;19.07;8.87;;;;;;;;;;5117100;28;20197;-65
2023/10/02 05:17:16;;;;;;;20.80;9.80;;;;;;;;;;5112072;28;20197;-65
2023/10/02 05:19:56;;;;;;;17.20;8.03;;;;;;;;;;5114585;28;20213;-63
2023/10/02 05:22:24;;;;;;;16.40;8.37;;;;;;;;;;5107297;28;20209;-65
2023/10/02 05:24:58;;;;;;;18.97;8.60;;;;;;;;;;5118442;28;20640;-64
2023/10/02 05:27:29;;;;;;;17.13;8.37;;;;;;;;;;5118446;28;20216;-64
2023/10/02 05:29:59;;;;;;;19.47;9.60;;;;;;;;;;5118550;28;20208;-64
2023/10/02 05:32:31;;;;;;;24.93;8.87;;;;;;;;;;5118083;28;20253;-64
2023/10/02 05:35:16;;;;;;;22.43;9.27;;;;;;;;;;5118021;28;20212;-64
2023/10/02 05:37:45;;;;;;;20.20;9.97;;;;;;;;;;5118257;28;20209;-64
2023/10/02 05:43:17;;;;;;;17.00;7.73;;;;;;;;;;5118151;28;20269;-63
2023/10/02 05:45:50;;;;;;;20.53;8.63;;;;;;;;;;5118041;28;20208;-64
2023/10/02 05:48:27;;;;;;;17.37;8.47;;;;;;;;;;5118159;28;20240;-63
2023/10/02 05:50:59;;;;;;;22.20;8.77;;;;;;;;;;5118345;28;20223;-64
2023/10/02 05:53:29;;;;;;;19.53;8.70;;;;;;;;;;5114303;28;20627;-64
2023/10/02 05:56:12;;;;;;;16.33;9.03;;;;;;;;;;5106669;28;20297;-63
2023/10/02 05:58:42;;;;;;;20.13;9.67;;;;;;;;;;5111493;28;20201;-64
2023/10/02 06:01:18;;;;;;;17.97;9.33;;;;;;;;;;5115568;28;20221;-64
2023/10/02 06:03:56;;;;;;;15.23;8.37;;;;;;;;;;5113505;28;20651;-65
2023/10/02 06:06:27;;;;;;;17.80;9.47;;;;;;;;;;5121132;27;20717;-65
2023/10/02 06:09:02;;;;;;;15.00;7.90;;;;;;;;;;5120728;28;20204;-64
2023/10/02 06:11:33;;;;;;;19.33;9.77;;;;;;;;;;5117751;28;20226;-65
2023/10/02 06:14:10;;;;;;;17.97;8.43;;;;;;;;;;5118113;28;20641;-64
2023/10/02 06:16:40;;;;;;;16.50;8.47;;;;;;;;;;5117640;28;20311;-64
2023/10/02 06:19:13;;;;;;;19.53;8.53;;;;;;;;;;5118009;28;20281;-65
2023/10/02 06:22:04;;;;;;;18.70;9.23;;;;;;;;;;5115667;28;20323;-64
2023/10/02 06:24:33;;;;;;;19.17;9.50;;;;;;;;;;5117526;28;20204;-65
2023/10/02 06:27:07;;;;;;;19.80;8.47;;;;;;;;;;5113209;28;20612;-64
2023/10/02 06:29:36;;;;;;;17.97;8.73;;;;;;;;;;5117448;28;20204;-64
2023/10/02 06:32:07;;;;;;;17.97;9.27;;;;;;;;;;5116607;28;20211;-63
2023/10/02 06:34:39;;;;;;;20.17;9.00;;;;;;;;;;5117688;28;20201;-66
2023/10/02 06:37:11;;;;;;;18.27;8.73;;;;;;;;;;5117569;28;20670;-65
2023/10/02 06:39:41;;;;;;;20.90;9.43;;;;;;;;;;5117147;28;20217;-64
2023/10/02 06:42:09;;;;;;;23.10;8.10;;;;;;;;;;5117442;28;20223;-63
2023/10/02 06:44:42;;;;;;;21.30;9.20;;;;;;;;;;5117306;28;20226;-63
2023/10/02 06:47:13;;;;;;;15.97;8.57;;;;;;;;;;5117127;28;20279;-63
2023/10/02 06:49:43;;;;;;;15.77;7.57;;;;;;;;;;5117586;28;20252;-63
2023/10/02 06:52:15;;;;;;;18.93;8.60;;;;;;;;;;5119044;28;20193;-65
2023/10/02 06:54:44;;;;;;;16.50;8.27;;;;;;;;;;5117221;28;20264;-63
2023/10/02 06:57:13;;;;;;;22.93;9.80;;;;;;;;;;5117517;28;20210;-64
2023/10/02 06:59:51;;;;;;;17.00;8.20;;;;;;;;;;5117511;28;20313;-64
2023/10/02 07:02:20;;;;;;;19.10;9.17;;;;;;;;;;5107990;28;20215;-63
2023/10/02 07:04:48;;;;;;;17.37;8.53;;;;;;;;;;5121415;28;20233;-64
2023/10/02 07:07:24;;;;;;;16.73;7.67;;;;;;;;;;5121124;28;20206;-66
2023/10/02 07:09:54;;;;;;;20.33;8.30;;;;;;;;;;5121203;27;20285;-64
2023/10/02 07:12:27;;;;;;;17.03;8.20;;;;;;;;;;5121453;28;20213;-63
2023/10/02 07:15:10;;;;;;;18.87;8.40;;;;;;;;;;5121144;28;20205;-64
2023/10/02 07:17:47;;;;;;;18.10;8.40;;;;;;;;;;5118331;28;20216;-65
2023/10/02 07:20:20;;;;;;;16.80;8.93;;;;;;;;;;5121013;28;20228;-64
2023/10/02 07:22:50;;;;;;;16.10;7.93;;;;;;;;;;5120721;28;20207;-63
2023/10/02 07:25:20;;;;;;;14.63;7.73;;;;;;;;;;5120939;28;20215;-63
2023/10/02 07:27:49;;;;;;;18.40;8.60;;;;;;;;;;5121152;28;20204;-64
2023/10/02 07:30:25;;;;;;;20.30;8.53;;;;;;;;;;5120527;28;20225;-65
2023/10/02 07:32:54;;;;;;;17.23;8.20;;;;;;;;;;5120774;28;20204;-65
2023/10/02 07:35:22;;;;;;;15.77;7.63;;;;;;;;;;5119965;28;20282;-65
2023/10/02 07:37:59;;;;;;;12.00;7.20;;;;;;;;;;5113002;28;20211;-64
2023/10/02 07:40:46;;;;;;;18.40;7.63;;;;;;;;;;5117117;28;20226;-64
2023/10/02 07:43:16;;;;;;;11.70;6.53;;;;;;;;;;5119836;28;20249;-65
2023/10/02 07:45:45;;;;;;;14.50;7.70;;;;;;;;;;5110517;28;20194;-64
2023/10/02 07:48:16;;;;;;;12.27;6.77;;;;;;;;;;5117127;28;20211;-64
2023/10/02 07:50:44;;;;;;;14.70;6.90;;;;;;;;;;5120317;28;20273;-64
2023/10/02 07:53:14;;;;;;;13.60;6.87;;;;;;;;;;5116509;28;20258;-66
2023/10/02 07:55:46;;;;;;;14.80;7.10;;;;;;;;;;5117300;28;20200;-66
2023/10/02 07:58:19;;;;;;;14.17;7.20;;;;;;;;;;5117123;28;20201;-66
2023/10/02 08:00:49;;;;;;;12.63;7.40;;;;;;;;;;5117731;28;20231;-66
2023/10/02 08:06:21;;;;;;;13.83;7.03;;;;;;;;;;5113630;28;20212;-64
2023/10/02 08:09:35;;;;;;;17.37;7.53;;;;;;;;;;5118102;28;20204;-66
2023/10/02 08:11:41;;;;;;;13.43;7.23;;;;;;;;;;5119631;28;20640;-66
2023/10/02 08:14:34;;;;;;;14.17;7.00;;;;;;;;;;5118033;28;20198;-65
2023/10/02 08:16:59;;;;;;;14.67;6.53;;;;;;;;;;5119404;28;20214;-66
2023/10/02 08:19:27;;;;;;;15.57;7.80;;;;;;;;;;5119858;28;20278;-65
2023/10/02 08:21:56;;;;;;;13.93;6.97;;;;;;;;;;5119756;28;20230;-67
2023/10/02 08:24:25;;;;;;;16.27;6.67;;;;;;;;;;5119686;28;20211;-66
2023/10/02 08:26:56;;;;;;;11.33;6.80;;;;;;;;;;5119299;28;20769;-66
2023/10/02 08:29:26;;;;;;;15.03;7.47;;;;;;;;;;5112827;28;20263;-66
2023/10/02 08:31:54;;;;;;;15.03;7.90;;;;;;;;;;5116483;28;20697;-66
2023/10/02 08:34:24;;;;;;;18.13;7.20;;;;;;;;;;5113255;28;20242;-66
2023/10/02 08:37:05;;;;;;;14.90;6.90;;;;;;;;;;5112884;28;20282;-65
2023/10/02 08:39:35;;;;;;;15.40;6.93;;;;;;;;;;5114351;28;20287;-64
2023/10/02 08:42:08;;;;;;;13.43;6.83;;;;;;;;;;5117093;28;20279;-63
2023/10/02 08:44:38;;;;;;;12.30;6.77;;;;;;;;;;5109876;28;20199;-64
2023/10/02 08:47:07;;;;;;;22.50;13.57;;;;;;;;;;5113451;28;20280;-64
2023/10/02 08:49:36;;;;;;;10.83;6.80;;;;;;;;;;5113158;28;20206;-65
2023/10/02 08:52:08;;;;;;;13.77;6.97;;;;;;;;;;5115550;28;20635;-65
2023/10/02 08:54:39;;;;;;;13.07;7.07;;;;;;;;;;5111625;28;20315;-66
2023/10/02 08:57:08;;;;;;;14.27;7.07;;;;;;;;;;5113843;28;20204;-64
2023/10/02 08:59:38;;;;;;;13.00;6.67;;;;;;;;;;5110862;28;20199;-65
2023/10/02 09:02:11;;;;;;;14.20;6.83;;;;;;;;;;5115543;28;20224;-64
2023/10/02 09:04:40;;;;;;;14.63;7.03;;;;;;;;;;5111876;28;20258;-65
2023/10/02 09:07:21;;;;;;;11.97;6.70;;;;;;;;;;5109558;28;20200;-65
2023/10/02 09:10:12;;;;;;;12.53;7.20;;;;;;;;;;5112826;28;20248;-65
2023/10/02 09:12:48;;;;;;;14.33;6.97;;;;;;;;;;5113610;28;20198;-66
2023/10/02 09:15:27;;;;;;;14.77;7.60;;;;;;;;;;5114998;28;20638;-66
2023/10/02 09:18:19;;;;;;;14.93;7.80;;;;;;;;;;5116241;28;20600;-66
2023/10/02 09:20:53;;;;;;;17.47;6.83;;;;;;;;;;5112023;28;20237;-67
2023/10/02 09:23:27;;;;;;;12.93;7.17;;;;;;;;;;5113299;28;20337;-66
2023/10/02 09:26:16;;;;;;;14.37;6.77;;;;;;;;;;5112865;28;20286;-67
2023/10/02 09:28:58;;;;;;;13.50;6.73;;;;;;;;;;5105358;28;20223;-67
2023/10/02 09:31:28;;;;;;;13.57;6.47;;;;;;;;;;5118391;28;20918;-66
2023/10/02 09:33:56;;;;;;;13.07;6.33;;;;;;;;;;5118388;28;20228;-73
2023/10/02 09:36:52;;;;;;;14.33;6.73;;;;;;;;;;5118335;28;20279;-73
2023/10/02 09:39:41;;;;;;;13.27;6.67;;;;;;;;;;5117912;28;20574;-71
2023/10/02 09:42:12;;;;;;;12.83;6.87;;;;;;;;;;5114889;28;20302;-74
2023/10/02 09:44:45;;;;;;;11.47;7.17;;;;;;;;;;5115460;28;20338;-73
2023/10/02 09:47:14;;;;;;;12.63;6.27;;;;;;;;;;5114742;28;20225;-67
2023/10/02 09:49:47;;;;;;;14.20;7.00;;;;;;;;;;5118118;28;20211;-71
2023/10/02 09:52:23;;;;;;;12.10;6.57;;;;;;;;;;5118431;28;20204;-70
2023/10/02 09:55:00;;;;;;;13.03;7.23;;;;;;;;;;5117774;28;20321;-71
2023/10/02 09:57:32;;;;;;;11.07;6.97;;;;;;;;;;5111941;28;20232;-71
2023/10/02 10:00:34;;;;;;;11.20;6.27;;;;;;;;;;5117700;28;20227;-71
2023/10/02 10:03:08;;;;;;;10.17;6.57;;;;;;;;;;5109258;28;20710;-70
2023/10/02 10:05:46;;;;;;;13.33;6.83;;;;;;;;;;5105723;28;20207;-74
2023/10/02 10:08:27;;;;;;;13.73;7.07;;;;;;;;;;5117903;28;20612;-74
2023/10/02 10:10:57;;;;;;;13.77;7.07;;;;;;;;;;5117619;28;20221;-66
2023/10/02 10:13:27;;;;;;;23.57;10.03;;;;;;;;;;5117733;28;20205;-67
2023/10/02 10:16:19;;;;;;;14.23;7.70;;;;;;;;;;5117624;28;20208;-67
2023/10/02 10:22:00;;;;;;;13.07;6.93;;;;;;;;;;5094307;28;20225;-68
2023/10/02 10:24:51;;;;;;;12.13;6.70;;;;;;;;;;5112340;28;20205;-68
2023/10/02 10:27:38;;;;;;;18.63;8.13;;;;;;;;;;5109663;28;20202;-69
2023/10/02 10:30:24;;;;;;;12.40;7.17;;;;;;;;;;5104921;28;20227;-68
2023/10/02 10:33:15;;;;;;;10.23;6.07;;;;;;;;;;5117785;28;20309;-68
2023/10/02 10:35:48;;;;;;;11.80;5.90;;;;;;;;;;5118211;28;20203;-69
2023/10/02 10:38:36;;;;;;;8.17;6.07;;;;;;;;;;5121943;28;20207;-68
2023/10/02 10:41:06;;;;;;;11.73;6.50;;;;;;;;;;5121742;28;20218;-68
2023/10/02 10:43:56;;;;;;;9.40;4.80;;;;;;;;;;5122012;27;20210;-69
2023/10/02 10:46:24;;;;;;;5.63;4.40;;;;;;;;;;5121305;28;20207;-69
2023/10/02 10:48:59;;;;;;;8.33;4.37;;;;;;;;;;5121663;28;20207;-65
2023/10/02 10:51:33;;;;;;;7.23;4.13;;;;;;;;;;5121844;28;20225;-66
2023/10/02 10:54:19;;;;;;;7.37;4.47;;;;;;;;;;5121237;28;20235;-69
2023/10/02 10:57:22;;;;;;;8.47;3.90;;;;;;;;;;5121372;27;20212;-65
2023/10/02 11:00:23;;;;;;;7.57;3.93;;;;;;;;;;5121394;28;20238;-68
2023/10/02 11:02:58;;;;;;;5.53;3.90;;;;;;;;;;5111215;28;20566;-66
2023/10/02 11:05:26;;;;;;;6.23;4.03;;;;;;;;;;5121177;28;20206;-66
2023/10/02 11:07:59;;;;;;;5.30;3.73;;;;;;;;;;5121434;28;20201;-65
2023/10/02 11:10:27;;;;;;;4.90;3.33;;;;;;;;;;5121134;28;20255;-65
2023/10/02 11:13:00;;;;;;;7.13;3.33;;;;;;;;;;5121022;28;20230;-66
2023/10/02 11:15:48;;;;;;;7.27;3.10;;;;;;;;;;5120911;28;20241;-66
2023/10/02 11:18:20;;;;;;;5.37;3.60;;;;;;;;;;5109006;28;20285;-65
2023/10/02 11:20:51;;;;;;;4.43;2.93;;;;;;;;;;5121102;28;20229;-65
2023/10/02 11:23:31;;;;;;;7.00;3.10;;;;;;;;;;5121060;28;20252;-65
2023/10/02 11:25:59;;;;;;;5.13;2.60;;;;;;;;;;5120985;28;20211;-67
2023/10/02 11:28:31;;;;;;;5.33;2.83;;;;;;;;;;5120586;28;20288;-66
2023/10/02 11:31:30;;;;;;;4.10;2.92;;;;;;;;;;5120496;28;20315;-66
2023/10/02 11:34:05;;;;;;;5.00;2.78;;;;;;;;;;5120520;28;20218;-66
2023/10/02 11:36:53;;;;;;;6.88;3.55;;;;;;;;;;5120509;28;20616;-66
2023/10/02 11:39:27;;;;;;;4.88;3.38;;;;;;;;;;5120580;28;20291;-65
2023/10/02 11:41:55;;;;;;;5.90;3.30;;;;;;;;;;5120317;28;20235;-67
2023/10/02 11:44:26;;;;;;;3.27;2.90;;;;;;;;;;5120705;28;20208;-67
2023/10/02 11:46:54;;;;;;;5.28;3.15;;;;;;;;;;5119875;28;20679;-67
2023/10/02 11:49:22;;;;;;;5.47;3.03;;;;;;;;;;5120447;28;20736;-67
2023/10/02 11:51:50;;;;;;;6.05;2.60;;;;;;;;;;5120375;27;20231;-67
2023/10/02 11:54:18;;;;;;;6.07;3.13;;;;;;;;;;5120001;28;20772;-67
2023/10/02 11:56:48;;;;;;;5.55;3.25;;;;;;;;;;5120394;28;20246;-67
2023/10/02 11:59:16;;;;;;;6.53;2.95;;;;;;;;;;5120194;28;20255;-67
2023/10/02 12:01:45;;;;;;;4.45;3.33;;;;;;;;;;5119977;28;20236;-67
2023/10/02 12:04:13;;;;;;;5.57;3.35;;;;;;;;;;5120241;28;20209;-65
2023/10/02 12:06:42;;;;;;;6.10;3.30;;;;;;;;;;5120219;27;20303;-65
2023/10/02 12:09:17;;;;;;;4.60;3.47;;;;;;;;;;5120154;28;20745;-65
2023/10/02 12:11:46;;;;;;;7.72;2.97;;;;;;;;;;5119964;28;20311;-65
2023/10/02 12:14:15;;;;;;;4.20;2.72;;;;;;;;;;5120050;28;20230;-66
2023/10/02 12:16:43;;;;;;;5.47;3.33;;;;;;;;;;5119860;28;20289;-66
2023/10/02 12:19:15;;;;;;;4.93;2.90;;;;;;;;;;5119789;28;20567;-66
2023/10/02 12:21:43;;;;;;;5.20;3.10;;;;;;;;;;5119914;28;20234;-66
2023/10/02 12:24:25;;;;;;;4.57;3.05;;;;;;;;;;5119816;28;20280;-66
2023/10/02 12:26:54;;;;;;;3.78;3.20;;;;;;;;;;5119639;28;20209;-66
2023/10/02 12:29:24;;;;;;;5.45;3.25;;;;;;;;;;5119559;28;20207;-66
2023/10/02 12:31:53;;;;;;;4.25;3.30;;;;;;;;;;5119213;28;20236;-66
2023/10/02 12:34:21;;;;;;;5.03;2.67;;;;;;;;;;5119505;28;20624;-66
2023/10/02 12:36:50;;;;;;;6.43;2.90;;;;;;;;;;5119658;28;20297;-66
2023/10/02 12:39:18;;;;;;;4.53;2.80;;;;;;;;;;5119601;27;20215;-66
2023/10/02 12:41:48;;;;;;;4.10;2.55;;;;;;;;;;5119356;28;20218;-66
2023/10/02 12:44:16;;;;;;;5.80;2.70;;;;;;;;;;5119626;28;20756;-66
2023/10/02 12:46:50;;;;;;;4.35;2.97;;;;;;;;;;5119116;28;20201;-66
2023/10/02 12:49:20;;;;;;;3.10;2.80;;;;;;;;;;5119440;28;20204;-66
2023/10/02 12:51:50;;;;;;;4.13;2.70;;;;;;;;;;5119225;28;20258;-66
2023/10/02 12:54:19;;;;;;;7.30;3.00;;;;;;;;;;5118910;28;20224;-65
2023/10/02 12:56:47;;;;;;;6.95;3.20;;;;;;;;;;5119166;28;20204;-66
2023/10/02 12:59:15;;;;;;;4.78;2.85;;;;;;;;;;5118373;28;20293;-67
2023/10/02 13:01:44;;;;;;;5.18;2.60;;;;;;;;;;5118751;28;20227;-66
2023/10/02 13:04:14;;;;;;;5.45;3.00;;;;;;;;;;5119147;28;20234;-66
2023/10/02 13:06:45;;;;;;;5.07;2.78;;;;;;;;;;5119176;28;20714;-66
2023/10/02 13:09:15;;;;;;;7.15;3.20;;;;;;;;;;5118965;28;20221;-65
2023/10/02 13:11:45;;;;;;;5.10;2.72;;;;;;;;;;5119012;28;20231;-67
2023/10/02 13:14:16;;;;;;;3.95;2.75;;;;;;;;;;5118776;28;20204;-66
2023/10/02 13:16:48;;;;;;;4.05;2.97;;;;;;;;;;5117280;28;20206;-65
2023/10/02 13:19:18;;;;;;;11.60;3.85;;;;;;;;;;5106246;28;20215;-66
2023/10/02 13:21:51;;;;;;;4.80;2.53;;;;;;;;;;5118612;28;20318;-66
2023/10/02 13:24:23;;;;;;;3.05;2.42;;;;;;;;;;5118384;28;20233;-66
2023/10/02 13:26:51;;;;;;;3.00;2.50;;;;;;;;;;5118528;28;20204;-67
2023/10/02 13:29:22;;;;;;;7.65;2.67;;;;;;;;;;5118787;28;20211;-66
2023/10/02 13:31:51;;;;;;;3.95;2.65;;;;;;;;;;5118073;28;20318;-66
2023/10/02 13:34:21;;;;;;;3.08;2.70;;;;;;;;;;5118690;28;20232;-68
2023/10/02 13:36:49;;;;;;;3.50;2.30;;;;;;;;;;5118536;28;20286;-66
2023/10/02 13:39:18;;;;;;;4.40;3.10;;;;;;;;;;5118625;28;20208;-66
2023/10/02 13:41:47;;;;;;;3.65;2.58;;;;;;;;;;5118246;28;20238;-66
2023/10/02 13:44:17;;;;;;;8.40;3.03;;;;;;;;;;5118458;28;20231;-66
2023/10/02 13:46:46;;;;;;;44.88;7.80;;;;;;;;;;5118222;28;20230;-68
2023/10/02 13:49:19;;;;;;;8.07;3.65;;;;;;;;;;5118141;28;20284;-66
2023/10/02 13:51:49;;;;;;;3.55;3.15;;;;;;;;;;5118251;28;20224;-66
2023/10/02 13:54:17;;;;;;;5.97;2.83;;;;;;;;;;5117846;28;20224;-66
2023/10/02 13:56:45;;;;;;;2.53;2.33;;;;;;;;;;5118336;28;20204;-66
2023/10/02 13:59:14;;;;;;;10.10;3.92;;;;;;;;;;5118104;28;20694;-66
2023/10/02 14:01:45;;;;;;;4.82;2.95;;;;;;;;;;5117783;28;20722;-66
2023/10/02 14:04:14;;;;;;;5.38;2.65;;;;;;;;;;5118245;28;20307;-67
2023/10/02 14:06:42;;;;;;;7.10;2.67;;;;;;;;;;5118160;28;20208;-66
2023/10/02 14:09:13;;;;;;;2.97;2.67;;;;;;;;;;5117978;28;20636;-68
2023/10/02 14:11:41;;;;;;;3.33;2.35;;;;;;;;;;5122083;28;20322;-66
2023/10/02 14:14:10;;;;;;;4.65;2.80;;;;;;;;;;5122627;28;20270;-66
2023/10/02 14:16:40;;;;;;;4.30;2.47;;;;;;;;;;5121908;28;20640;-67
2023/10/02 14:19:09;;;;;;;4.28;2.70;;;;;;;;;;5122386;28;20670;-67
2023/10/02 14:21:37;;;;;;;3.15;2.80;;;;;;;;;;5122222;28;20252;-67
2023/10/02 14:24:05;;;;;;;4.65;2.80;;;;;;;;;;5122034;28;20259;-67
2023/10/02 14:26:34;;;;;;;9.10;4.18;;;;;;;;;;5121958;28;20292;-67
2023/10/02 14:29:02;;;;;;;4.93;2.70;;;;;;;;;;5122120;28;20212;-67
2023/10/02 14:31:31;;;;;;;3.28;2.97;;;;;;;;;;5121585;28;20289;-67
2023/10/02 14:34:00;;;;;;;3.47;2.83;;;;;;;;;;5121981;28;20210;-67
2023/10/02 14:36:31;;;;;;;3.08;2.67;;;;;;;;;;5122407;28;20352;-67
2023/10/02 14:38:59;;;;;;;8.07;2.90;;;;;;;;;;5121519;28;20204;-67
2023/10/02 14:41:27;;;;;;;3.35;3.05;;;;;;;;;;5121811;28;20239;-67
2023/10/02 14:43:58;;;;;;;8.80;2.90;;;;;;;;;;5121445;28;20315;-67
2023/10/02 14:46:26;;;;;;;3.88;2.83;;;;;;;;;;5121705;28;20264;-67
2023/10/02 14:48:54;;;;;;;6.03;2.67;;;;;;;;;;5121610;28;20231;-67
2023/10/02 14:51:23;;;;;;;5.60;2.75;;;;;;;;;;5121653;28;20224;-67
2023/10/02 14:53:51;;;;;;;2.70;2.33;;;;;;;;;;5120938;28;20260;-67
2023/10/02 14:56:21;;;;;;;4.40;2.40;;;;;;;;;;5121580;28;20296;-67
2023/10/02 14:58:50;;;;;;;3.25;2.58;;;;;;;;;;5121320;28;20253;-67
2023/10/02 15:01:20;;;;;;;43.42;10.40;;;;;;;;;;5120871;28;20593;-67
2023/10/02 15:03:48;;;;;;;13.98;3.97;;;;;;;;;;5107900;28;20224;-67
2023/10/02 15:06:17;;;;;;;8.50;3.00;;;;;;;;;;5121129;28;20208;-67
2023/10/02 15:08:45;;;;;;;7.65;3.30;;;;;;;;;;5121199;27;20204;-67
2023/10/02 15:11:13;;;;;;;3.58;2.72;;;;;;;;;;5121406;28;20228;-67
2023/10/02 15:13:43;;;;;;;5.57;2.83;;;;;;;;;;5121260;28;20196;-67
2023/10/02 15:16:11;;;;;;;4.40;2.85;;;;;;;;;;5120640;28;20295;-67
2023/10/02 15:18:42;;;;;;;4.82;3.22;;;;;;;;;;5116175;28;20209;-67
2023/10/02 15:21:10;;;;;;;9.38;3.80;;;;;;;;;;5115222;28;20224;-67
2023/10/02 15:23:39;;;;;;;6.72;4.03;;;;;;;;;;5120538;28;20268;-67
2023/10/02 15:26:10;;;;;;;5.22;3.15;;;;;;;;;;5121037;28;20219;-67
2023/10/02 15:28:39;;;;;;;10.15;3.75;;;;;;;;;;5120792;28;20225;-67
2023/10/02 15:31:07;;;;;;;9.52;3.53;;;;;;;;;;5120401;28;20227;-66
2023/10/02 15:33:36;;;;;;;6.75;3.58;;;;;;;;;;5120646;28;20567;-67